TimeEDT,TemperatureF,Dew PointF,Humidity,Sea Level PressureIn,VisibilityMPH,Wind Direction,Wind SpeedMPH,Gust SpeedMPH,PrecipitationIn,Events,Conditions,WindDirDegrees,DateUTC
12:53 AM,66.9,61.0,81,29.66,10.0,West,12.7,-,N/A,,Clear,280,2012-10-28 04:53:00
1:53 AM,66.0,61.0,84,29.66,10.0,WNW,12.7,-,N/A,,Clear,290,2012-10-28 05:53:00
2:53 AM,66.9,62.1,84,29.66,10.0,WNW,12.7,-,N/A,,Clear,290,2012-10-28 06:53:00
3:53 AM,66.0,61.0,84,29.66,10.0,WNW,11.5,-,N/A,,Clear,290,2012-10-28 07:53:00
4:53 AM,66.0,61.0,84,29.66,10.0,WNW,12.7,-,N/A,,Clear,290,2012-10-28 08:53:00
5:53 AM,64.9,61.0,87,29.67,10.0,WNW,11.5,-,N/A,,Clear,290,2012-10-28 09:53:00
6:53 AM,64.0,60.1,87,29.69,10.0,West,10.4,-,N/A,,Clear,280,2012-10-28 10:53:00
7:53 AM,63.0,60.1,90,29.71,9.0,WNW,12.7,-,N/A,,Clear,290,2012-10-28 11:53:00
8:53 AM,66.0,61.0,84,29.73,10.0,WNW,13.8,-,N/A,,Clear,290,2012-10-28 12:53:00
9:53 AM,70.0,60.1,71,29.73,10.0,WNW,19.6,24.2,N/A,,Clear,290,2012-10-28 13:53:00
10:53 AM,73.0,61.0,66,29.72,10.0,WNW,19.6,28.8,N/A,,Partly Cloudy,290,2012-10-28 14:53:00
11:53 AM,75.0,62.1,64,29.72,10.0,West,18.4,28.8,N/A,,Scattered Clouds,280,2012-10-28 15:53:00
1:53 PM,77.0,62.1,60,29.68,10.0,WNW,20.7,25.3,N/A,,Scattered Clouds,290,2012-10-28 17:53:00
2:53 PM,77.0,61.0,58,29.67,10.0,WNW,17.3,21.9,N/A,,Scattered Clouds,290,2012-10-28 18:53:00
3:53 PM,78.1,59.0,52,29.66,10.0,West,17.3,25.3,N/A,,Partly Cloudy,280,2012-10-28 19:53:00
4:53 PM,77.0,57.0,50,29.66,10.0,WNW,13.8,-,N/A,,Partly Cloudy,290,2012-10-28 20:53:00
5:53 PM,73.0,57.0,57,29.68,10.0,West,15.0,-,N/A,,Partly Cloudy,280,2012-10-28 21:53:00
6:53 PM,70.0,57.9,65,29.70,10.0,WNW,9.2,-,N/A,,Partly Cloudy,300,2012-10-28 22:53:00
7:53 PM,66.9,57.0,70,29.71,10.0,WNW,9.2,-,N/A,,Clear,300,2012-10-28 23:53:00
8:53 PM,66.9,57.9,73,29.73,10.0,WNW,9.2,-,N/A,,Overcast,290,2012-10-29 00:53:00
9:53 PM,64.0,55.0,73,29.74,10.0,West,9.2,-,N/A,,Clear,270,2012-10-29 01:53:00
10:53 PM,62.1,55.0,78,29.76,10.0,West,9.2,-,N/A,,Scattered Clouds,270,2012-10-29 02:53:00
11:53 PM,61.0,55.0,81,29.78,10.0,West,11.5,-,N/A,,Clear,270,2012-10-29 03:53:00